sensor_id;sensor_type;location;lat;lon;timestamp;pressure;altitude;pressure_sealevel;temperature;humidity
74334;BME280;62753;40.394;-80.022;2023-05-01T00:00:09;95275.08;;;17.68;27.11
74334;BME280;62753;40.394;-80.022;2023-05-01T00:02:33;95273.16;;;18.04;26.69
74334;BME280;62753;40.394;-80.022;2023-05-01T00:04:59;95277.35;;;17.58;27.59
74334;BME280;62753;40.394;-80.022;2023-05-01T00:07:24;95279.93;;;17.97;27.33
74334;BME280;62753;40.394;-80.022;2023-05-01T00:09:50;95280.85;;;17.33;27.97
74334;BME280;62753;40.394;-80.022;2023-05-01T00:12:15;95280.39;;;17.64;28.06
74334;BME280;62753;40.394;-80.022;2023-05-01T00:14:40;95279.93;;;18.06;27.60
74334;BME280;62753;40.394;-80.022;2023-05-01T00:17:06;95280.30;;;17.98;26.97
74334;BME280;62753;40.394;-80.022;2023-05-01T00:19:31;95283.35;;;18.04;27.38
74334;BME280;62753;40.394;-80.022;2023-05-01T00:21:56;95277.50;;;16.95;27.47
74334;BME280;62753;40.394;-80.022;2023-05-01T00:24:21;95277.23;;;16.92;28.13
74334;BME280;62753;40.394;-80.022;2023-05-01T00:26:47;95284.30;;;17.26;27.82
74334;BME280;62753;40.394;-80.022;2023-05-01T00:29:12;95291.42;;;17.24;27.75
74334;BME280;62753;40.394;-80.022;2023-05-01T00:31:37;95296.51;;;17.71;27.66
74334;BME280;62753;40.394;-80.022;2023-05-01T00:34:03;95297.24;;;17.08;27.16
74334;BME280;62753;40.394;-80.022;2023-05-01T00:36:29;95297.88;;;17.18;27.93
74334;BME280;62753;40.394;-80.022;2023-05-01T00:38:54;95300.16;;;16.93;27.62
74334;BME280;62753;40.394;-80.022;2023-05-01T00:41:19;95298.35;;;17.17;28.08
74334;BME280;62753;40.394;-80.022;2023-05-01T00:43:44;95289.17;;;16.94;27.05
74334;BME280;62753;40.394;-80.022;2023-05-01T00:46:10;95292.36;;;17.24;28.15
74334;BME280;62753;40.394;-80.022;2023-05-01T00:48:35;95290.97;;;17.41;27.52
74334;BME280;62753;40.394;-80.022;2023-05-01T00:51:01;95294.97;;;17.40;27.54
74334;BME280;62753;40.394;-80.022;2023-05-01T00:53:26;95301.33;;;16.42;27.51
74334;BME280;62753;40.394;-80.022;2023-05-01T00:55:51;95304.89;;;16.39;27.43
74334;BME280;62753;40.394;-80.022;2023-05-01T00:58:17;95301.23;;;16.25;27.59
74334;BME280;62753;40.394;-80.022;2023-05-01T01:00:42;95303.87;;;15.93;27.38
74334;BME280;62753;40.394;-80.022;2023-05-01T01:03:09;95300.46;;;15.96;27.36
74334;BME280;62753;40.394;-80.022;2023-05-01T01:05:37;95302.78;;;15.43;28.25
74334;BME280;62753;40.394;-80.022;2023-05-01T01:08:06;95301.17;;;14.96;28.90
74334;BME280;62753;40.394;-80.022;2023-05-01T01:10:29;95300.25;;;15.17;29.01
74334;BME280;62753;40.394;-80.022;2023-05-01T01:12:53;95295.67;;;15.41;28.55
74334;BME280;62753;40.394;-80.022;2023-05-01T01:15:20;95289.95;;;15.01;29.34
74334;BME280;62753;40.394;-80.022;2023-05-01T01:17:46;95289.58;;;15.17;28.70
74334;BME280;62753;40.394;-80.022;2023-05-01T01:20:15;95288.36;;;15.16;28.66
74334;BME280;62753;40.394;-80.022;2023-05-01T01:22:31;95292.41;;;15.64;28.78
74334;BME280;62753;40.394;-80.022;2023-05-01T01:25:09;95291.95;;;15.65;27.74
74334;BME280;62753;40.394;-80.022;2023-05-01T01:27:30;95293.27;;;15.78;28.28
74334;BME280;62753;40.394;-80.022;2023-05-01T01:29:57;95280.80;;;15.67;28.45
74334;BME280;62753;40.394;-80.022;2023-05-01T01:32:24;95280.05;;;16.09;27.66
74334;BME280;62753;40.394;-80.022;2023-05-01T01:34:43;95279.81;;;16.11;27.51
74334;BME280;62753;40.394;-80.022;2023-05-01T01:37:11;95278.72;;;16.41;27.28
74334;BME280;62753;40.394;-80.022;2023-05-01T01:39:33;95282.10;;;16.19;26.90
74334;BME280;62753;40.394;-80.022;2023-05-01T01:41:55;95287.52;;;16.21;27.24
74334;BME280;62753;40.394;-80.022;2023-05-01T01:44:24;95289.29;;;15.84;27.80
74334;BME280;62753;40.394;-80.022;2023-05-01T01:46:44;95294.32;;;16.00;27.85
74334;BME280;62753;40.394;-80.022;2023-05-01T01:49:16;95292.96;;;16.12;27.54
74334;BME280;62753;40.394;-80.022;2023-05-01T01:51:37;95288.22;;;16.16;27.48
74334;BME280;62753;40.394;-80.022;2023-05-01T01:54:01;95293.93;;;16.18;28.21
74334;BME280;62753;40.394;-80.022;2023-05-01T01:56:26;95294.97;;;15.70;28.67
74334;BME280;62753;40.394;-80.022;2023-05-01T01:58:52;95296.04;;;15.59;28.97
74334;BME280;62753;40.394;-80.022;2023-05-01T02:01:17;95296.50;;;15.67;28.41
74334;BME280;62753;40.394;-80.022;2023-05-01T02:03:43;95292.81;;;15.61;28.97
74334;BME280;62753;40.394;-80.022;2023-05-01T02:06:07;95292.54;;;15.55;29.11
74334;BME280;62753;40.394;-80.022;2023-05-01T02:08:33;95290.82;;;15.72;28.95
74334;BME280;62753;40.394;-80.022;2023-05-01T02:10:58;95294.31;;;15.75;29.02
74334;BME280;62753;40.394;-80.022;2023-05-01T02:13:23;95304.23;;;15.37;29.64
74334;BME280;62753;40.394;-80.022;2023-05-01T02:15:49;95311.65;;;15.35;29.69
74334;BME280;62753;40.394;-80.022;2023-05-01T02:18:14;95308.73;;;15.20;29.19
74334;BME280;62753;40.394;-80.022;2023-05-01T02:20:40;95310.28;;;14.45;30.87
74334;BME280;62753;40.394;-80.022;2023-05-01T02:23:06;95302.91;;;13.09;32.65
74334;BME280;62753;40.394;-80.022;2023-05-01T02:25:33;95304.83;;;14.34;32.01
74334;BME280;62753;40.394;-80.022;2023-05-01T02:27:58;95300.84;;;13.97;33.06
74334;BME280;62753;40.394;-80.022;2023-05-01T02:30:21;95298.73;;;12.78;33.39
74334;BME280;62753;40.394;-80.022;2023-05-01T02:32:47;95298.61;;;12.75;34.17
74334;BME280;62753;40.394;-80.022;2023-05-01T02:35:12;95294.15;;;13.13;33.92
74334;BME280;62753;40.394;-80.022;2023-05-01T02:37:37;95289.06;;;12.82;34.81
74334;BME280;62753;40.394;-80.022;2023-05-01T02:40:03;95279.37;;;13.62;33.94
74334;BME280;62753;40.394;-80.022;2023-05-01T02:42:28;95279.64;;;13.36;33.67
74334;BME280;62753;40.394;-80.022;2023-05-01T02:44:56;95280.74;;;13.61;34.28
74334;BME280;62753;40.394;-80.022;2023-05-01T02:47:20;95285.39;;;12.77;35.60
74334;BME280;62753;40.394;-80.022;2023-05-01T02:49:45;95281.49;;;13.17;35.12
74334;BME280;62753;40.394;-80.022;2023-05-01T02:52:09;95278.27;;;13.26;34.39
74334;BME280;62753;40.394;-80.022;2023-05-01T02:54:35;95286.01;;;13.40;35.64
74334;BME280;62753;40.394;-80.022;2023-05-01T02:57:03;95284.42;;;13.02;35.51
74334;BME280;62753;40.394;-80.022;2023-05-01T02:59:26;95285.61;;;13.56;34.90
74334;BME280;62753;40.394;-80.022;2023-05-01T03:01:51;95282.50;;;13.43;35.18
74334;BME280;62753;40.394;-80.022;2023-05-01T03:04:17;95281.67;;;13.61;34.97
74334;BME280;62753;40.394;-80.022;2023-05-01T03:06:42;95280.48;;;13.54;36.04
74334;BME280;62753;40.394;-80.022;2023-05-01T03:09:07;95278.44;;;13.62;36.00
74334;BME280;62753;40.394;-80.022;2023-05-01T03:11:33;95278.50;;;12.99;37.53
74334;BME280;62753;40.394;-80.022;2023-05-01T03:13:58;95284.03;;;12.15;39.62
74334;BME280;62753;40.394;-80.022;2023-05-01T03:16:24;95281.82;;;12.18;39.40
74334;BME280;62753;40.394;-80.022;2023-05-01T03:18:49;95279.48;;;12.62;39.13
74334;BME280;62753;40.394;-80.022;2023-05-01T03:21:14;95274.45;;;12.54;39.66
74334;BME280;62753;40.394;-80.022;2023-05-01T03:23:40;95272.29;;;11.96;40.36
74334;BME280;62753;40.394;-80.022;2023-05-01T03:26:05;95269.82;;;12.50;40.03
74334;BME280;62753;40.394;-80.022;2023-05-01T03:28:31;95264.08;;;12.52;39.79
74334;BME280;62753;40.394;-80.022;2023-05-01T03:30:56;95258.67;;;12.70;39.74
74334;BME280;62753;40.394;-80.022;2023-05-01T03:33:21;95257.11;;;12.95;38.99
74334;BME280;62753;40.394;-80.022;2023-05-01T03:35:47;95261.72;;;13.82;36.97
74334;BME280;62753;40.394;-80.022;2023-05-01T03:38:12;95254.00;;;14.08;36.16
74334;BME280;62753;40.394;-80.022;2023-05-01T03:40:38;95257.63;;;13.60;37.36
74334;BME280;62753;40.394;-80.022;2023-05-01T03:43:03;95253.54;;;14.04;36.93
74334;BME280;62753;40.394;-80.022;2023-05-01T03:45:29;95255.79;;;14.04;36.52
74334;BME280;62753;40.394;-80.022;2023-05-01T03:47:54;95251.26;;;12.74;38.46
74334;BME280;62753;40.394;-80.022;2023-05-01T03:50:19;95254.78;;;12.52;39.54
74334;BME280;62753;40.394;-80.022;2023-05-01T03:52:45;95248.82;;;12.33;39.38
74334;BME280;62753;40.394;-80.022;2023-05-01T03:55:10;95255.60;;;12.30;40.44
74334;BME280;62753;40.394;-80.022;2023-05-01T03:57:35;95253.88;;;12.66;38.99
74334;BME280;62753;40.394;-80.022;2023-05-01T04:00:01;95256.53;;;11.89;40.37
74334;BME280;62753;40.394;-80.022;2023-05-01T04:02:26;95252.14;;;12.42;40.21
74334;BME280;62753;40.394;-80.022;2023-05-01T04:04:52;95249.13;;;12.28;39.95
74334;BME280;62753;40.394;-80.022;2023-05-01T04:07:17;95247.32;;;12.35;40.24
74334;BME280;62753;40.394;-80.022;2023-05-01T04:09:43;95249.42;;;12.04;40.31
74334;BME280;62753;40.394;-80.022;2023-05-01T04:12:09;95247.83;;;11.95;40.12
74334;BME280;62753;40.394;-80.022;2023-05-01T04:14:34;95245.99;;;11.79;40.41
74334;BME280;62753;40.394;-80.022;2023-05-01T04:16:59;95240.29;;;11.56;41.83
74334;BME280;62753;40.394;-80.022;2023-05-01T04:19:25;95243.03;;;12.15;41.33
74334;BME280;62753;40.394;-80.022;2023-05-01T04:21:50;95243.68;;;11.74;41.31
74334;BME280;62753;40.394;-80.022;2023-05-01T04:24:16;95238.48;;;12.07;40.79
74334;BME280;62753;40.394;-80.022;2023-05-01T04:26:41;95237.82;;;11.70;40.25
74334;BME280;62753;40.394;-80.022;2023-05-01T04:29:07;95235.00;;;12.55;39.61
74334;BME280;62753;40.394;-80.022;2023-05-01T04:31:32;95239.57;;;12.56;39.85
74334;BME280;62753;40.394;-80.022;2023-05-01T04:33:57;95235.18;;;12.46;39.41
74334;BME280;62753;40.394;-80.022;2023-05-01T04:36:23;95237.85;;;12.48;39.56
74334;BME280;62753;40.394;-80.022;2023-05-01T04:38:48;95238.61;;;11.95;40.18
74334;BME280;62753;40.394;-80.022;2023-05-01T04:41:14;95236.21;;;12.48;39.16
74334;BME280;62753;40.394;-80.022;2023-05-01T04:43:39;95234.93;;;12.47;38.56
74334;BME280;62753;40.394;-80.022;2023-05-01T04:46:10;95236.43;;;12.32;39.03
74334;BME280;62753;40.394;-80.022;2023-05-01T04:48:30;95234.95;;;12.72;38.75
74334;BME280;62753;40.394;-80.022;2023-05-01T04:50:56;95235.72;;;12.67;38.42
74334;BME280;62753;40.394;-80.022;2023-05-01T04:53:21;95236.42;;;12.04;39.02
74334;BME280;62753;40.394;-80.022;2023-05-01T04:55:47;95240.67;;;12.10;39.26
74334;BME280;62753;40.394;-80.022;2023-05-01T04:58:12;95240.75;;;11.56;40.56
74334;BME280;62753;40.394;-80.022;2023-05-01T05:00:38;95243.12;;;11.44;41.17
74334;BME280;62753;40.394;-80.022;2023-05-01T05:03:03;95237.17;;;12.08;39.86
74334;BME280;62753;40.394;-80.022;2023-05-01T05:05:29;95236.63;;;11.75;40.16
74334;BME280;62753;40.394;-80.022;2023-05-01T05:07:54;95233.89;;;11.71;40.27
74334;BME280;62753;40.394;-80.022;2023-05-01T05:10:20;95235.57;;;11.65;40.74
74334;BME280;62753;40.394;-80.022;2023-05-01T05:12:45;95236.82;;;11.79;40.41
74334;BME280;62753;40.394;-80.022;2023-05-01T05:15:11;95235.36;;;12.13;39.69
74334;BME280;62753;40.394;-80.022;2023-05-01T05:17:36;95232.30;;;12.36;39.28
74334;BME280;62753;40.394;-80.022;2023-05-01T05:20:02;95232.46;;;12.18;40.17
74334;BME280;62753;40.394;-80.022;2023-05-01T05:22:27;95232.38;;;11.61;41.30
74334;BME280;62753;40.394;-80.022;2023-05-01T05:24:53;95227.07;;;11.12;42.12
74334;BME280;62753;40.394;-80.022;2023-05-01T05:27:18;95230.70;;;10.72;43.53
74334;BME280;62753;40.394;-80.022;2023-05-01T05:29:43;95232.45;;;11.68;42.14
74334;BME280;62753;40.394;-80.022;2023-05-01T05:32:09;95228.58;;;10.34;43.40
74334;BME280;62753;40.394;-80.022;2023-05-01T05:34:34;95227.14;;;10.98;42.95
74334;BME280;62753;40.394;-80.022;2023-05-01T05:36:59;95219.94;;;10.58;44.75
74334;BME280;62753;40.394;-80.022;2023-05-01T05:39:25;95217.94;;;10.28;44.41
74334;BME280;62753;40.394;-80.022;2023-05-01T05:41:50;95211.68;;;10.58;43.91
74334;BME280;62753;40.394;-80.022;2023-05-01T05:44:16;95216.07;;;9.86;45.13
74334;BME280;62753;40.394;-80.022;2023-05-01T05:46:41;95212.15;;;9.92;45.29
74334;BME280;62753;40.394;-80.022;2023-05-01T05:49:07;95217.88;;;9.75;46.10
74334;BME280;62753;40.394;-80.022;2023-05-01T05:51:32;95216.88;;;10.08;45.56
74334;BME280;62753;40.394;-80.022;2023-05-01T05:53:58;95212.51;;;9.94;45.29
74334;BME280;62753;40.394;-80.022;2023-05-01T05:56:23;95207.80;;;9.97;45.25
74334;BME280;62753;40.394;-80.022;2023-05-01T05:58:49;95208.76;;;9.52;45.24
74334;BME280;62753;40.394;-80.022;2023-05-01T06:01:14;95206.88;;;9.98;44.55
74334;BME280;62753;40.394;-80.022;2023-05-01T06:03:40;95201.43;;;10.20;43.63
74334;BME280;62753;40.394;-80.022;2023-05-01T06:06:05;95203.38;;;10.27;43.64
74334;BME280;62753;40.394;-80.022;2023-05-01T06:08:31;95200.95;;;10.89;42.61
74334;BME280;62753;40.394;-80.022;2023-05-01T06:10:56;95203.45;;;9.69;44.77
74334;BME280;62753;40.394;-80.022;2023-05-01T06:13:22;95198.20;;;10.13;43.85
74334;BME280;62753;40.394;-80.022;2023-05-01T06:15:47;95192.55;;;10.54;43.15
74334;BME280;62753;40.394;-80.022;2023-05-01T06:18:13;95190.20;;;9.41;45.69
74334;BME280;62753;40.394;-80.022;2023-05-01T06:20:38;95188.99;;;9.58;45.02
74334;BME280;62753;40.394;-80.022;2023-05-01T06:23:04;95186.35;;;9.83;43.79
74334;BME280;62753;40.394;-80.022;2023-05-01T06:25:29;95180.78;;;10.29;44.37
74334;BME280;62753;40.394;-80.022;2023-05-01T06:27:55;95178.31;;;11.07;42.10
74334;BME280;62753;40.394;-80.022;2023-05-01T06:30:20;95175.81;;;11.17;41.46
74334;BME280;62753;40.394;-80.022;2023-05-01T06:32:46;95169.79;;;10.62;42.27
74334;BME280;62753;40.394;-80.022;2023-05-01T06:35:12;95178.00;;;10.42;43.69
74334;BME280;62753;40.394;-80.022;2023-05-01T06:37:36;95167.38;;;9.58;44.91
74334;BME280;62753;40.394;-80.022;2023-05-01T06:40:02;95166.17;;;10.26;43.72
74334;BME280;62753;40.394;-80.022;2023-05-01T06:42:27;95162.57;;;9.55;44.47
74334;BME280;62753;40.394;-80.022;2023-05-01T06:44:53;95161.04;;;9.68;44.39
74334;BME280;62753;40.394;-80.022;2023-05-01T06:47:18;95167.28;;;9.95;43.90
74334;BME280;62753;40.394;-80.022;2023-05-01T06:49:44;95165.12;;;9.34;45.13
74334;BME280;62753;40.394;-80.022;2023-05-01T06:52:09;95163.48;;;8.80;46.57
74334;BME280;62753;40.394;-80.022;2023-05-01T06:54:34;95161.26;;;9.46;45.34
74334;BME280;62753;40.394;-80.022;2023-05-01T06:57:00;95155.79;;;10.21;43.72
74334;BME280;62753;40.394;-80.022;2023-05-01T06:59:25;95159.14;;;11.14;42.26
74334;BME280;62753;40.394;-80.022;2023-05-01T07:01:51;95145.43;;;10.72;42.06
74334;BME280;62753;40.394;-80.022;2023-05-01T07:04:16;95153.80;;;11.26;41.05
74334;BME280;62753;40.394;-80.022;2023-05-01T07:06:42;95146.67;;;11.11;41.44
74334;BME280;62753;40.394;-80.022;2023-05-01T07:09:08;95138.18;;;10.60;41.25
74334;BME280;62753;40.394;-80.022;2023-05-01T07:11:32;95142.59;;;10.79;40.78
74334;BME280;62753;40.394;-80.022;2023-05-01T07:13:59;95132.89;;;12.27;39.12
74334;BME280;62753;40.394;-80.022;2023-05-01T07:16:24;95131.80;;;12.08;38.99
74334;BME280;62753;40.394;-80.022;2023-05-01T07:18:49;95121.72;;;12.01;39.01
74334;BME280;62753;40.394;-80.022;2023-05-01T07:21:14;95126.49;;;12.19;37.57
74334;BME280;62753;40.394;-80.022;2023-05-01T07:23:40;95123.26;;;11.56;38.85
74334;BME280;62753;40.394;-80.022;2023-05-01T07:26:05;95119.69;;;11.62;38.77
74334;BME280;62753;40.394;-80.022;2023-05-01T07:28:31;95123.29;;;11.78;39.57
74334;BME280;62753;40.394;-80.022;2023-05-01T07:30:57;95123.95;;;11.29;39.05
74334;BME280;62753;40.394;-80.022;2023-05-01T07:33:22;95123.61;;;11.35;39.23
74334;BME280;62753;40.394;-80.022;2023-05-01T07:35:47;95122.69;;;11.24;39.53
74334;BME280;62753;40.394;-80.022;2023-05-01T07:38:15;95121.32;;;11.12;39.72
74334;BME280;62753;40.394;-80.022;2023-05-01T07:40:38;95119.10;;;11.37;39.67
74334;BME280;62753;40.394;-80.022;2023-05-01T07:43:04;95114.65;;;12.09;37.77
74334;BME280;62753;40.394;-80.022;2023-05-01T07:45:29;95121.32;;;11.52;38.74
74334;BME280;62753;40.394;-80.022;2023-05-01T07:47:55;95122.32;;;11.44;38.05
74334;BME280;62753;40.394;-80.022;2023-05-01T07:50:20;95124.26;;;11.24;38.90
74334;BME280;62753;40.394;-80.022;2023-05-01T07:52:45;95128.29;;;10.78;40.79
74334;BME280;62753;40.394;-80.022;2023-05-01T07:55:11;95119.64;;;10.42;41.29
74334;BME280;62753;40.394;-80.022;2023-05-01T07:57:36;95119.65;;;10.28;41.96
74334;BME280;62753;40.394;-80.022;2023-05-01T08:00:02;95120.26;;;10.57;41.25
74334;BME280;62753;40.394;-80.022;2023-05-01T08:02:27;95125.28;;;10.39;41.13
74334;BME280;62753;40.394;-80.022;2023-05-01T08:04:53;95123.19;;;11.21;39.75
74334;BME280;62753;40.394;-80.022;2023-05-01T08:07:18;95123.02;;;11.00;39.38
74334;BME280;62753;40.394;-80.022;2023-05-01T08:09:45;95122.45;;;11.65;39.05
74334;BME280;62753;40.394;-80.022;2023-05-01T08:12:09;95121.78;;;10.88;40.24
74334;BME280;62753;40.394;-80.022;2023-05-01T08:14:34;95119.48;;;11.09;39.71
74334;BME280;62753;40.394;-80.022;2023-05-01T08:17:00;95114.75;;;11.22;39.49
74334;BME280;62753;40.394;-80.022;2023-05-01T08:19:26;95111.62;;;11.17;40.07
74334;BME280;62753;40.394;-80.022;2023-05-01T08:21:51;95114.88;;;10.46;41.54
74334;BME280;62753;40.394;-80.022;2023-05-01T08:24:17;95115.82;;;10.75;41.03
74334;BME280;62753;40.394;-80.022;2023-05-01T08:26:42;95116.83;;;10.88;41.45
74334;BME280;62753;40.394;-80.022;2023-05-01T08:29:08;95116.16;;;10.62;41.91
74334;BME280;62753;40.394;-80.022;2023-05-01T08:31:33;95116.47;;;10.48;41.85
74334;BME280;62753;40.394;-80.022;2023-05-01T08:33:58;95116.72;;;10.87;41.21
74334;BME280;62753;40.394;-80.022;2023-05-01T08:36:24;95101.54;;;10.07;43.02
74334;BME280;62753;40.394;-80.022;2023-05-01T08:38:49;95099.63;;;10.15;43.80
74334;BME280;62753;40.394;-80.022;2023-05-01T08:41:15;95099.78;;;10.23;43.71
74334;BME280;62753;40.394;-80.022;2023-05-01T08:43:41;95095.30;;;9.74;44.33
74334;BME280;62753;40.394;-80.022;2023-05-01T08:46:09;95097.35;;;9.41;45.30
74334;BME280;62753;40.394;-80.022;2023-05-01T08:48:34;95093.60;;;8.90;45.75
74334;BME280;62753;40.394;-80.022;2023-05-01T08:50:58;95096.61;;;9.57;45.00
74334;BME280;62753;40.394;-80.022;2023-05-01T08:53:23;95094.91;;;9.02;46.28
74334;BME280;62753;40.394;-80.022;2023-05-01T08:55:49;95095.14;;;10.15;43.88
74334;BME280;62753;40.394;-80.022;2023-05-01T08:58:14;95096.18;;;10.04;43.90
74334;BME280;62753;40.394;-80.022;2023-05-01T09:00:40;95092.29;;;10.02;42.63
74334;BME280;62753;40.394;-80.022;2023-05-01T09:03:05;95092.61;;;10.28;42.33
74334;BME280;62753;40.394;-80.022;2023-05-01T09:05:31;95089.99;;;10.70;41.88
74334;BME280;62753;40.394;-80.022;2023-05-01T09:07:56;95094.13;;;10.73;42.50
74334;BME280;62753;40.394;-80.022;2023-05-01T09:10:21;95091.47;;;10.59;42.18
74334;BME280;62753;40.394;-80.022;2023-05-01T09:12:53;95091.45;;;10.51;41.72
74334;BME280;62753;40.394;-80.022;2023-05-01T09:15:12;95090.84;;;10.54;43.71
74334;BME280;62753;40.394;-80.022;2023-05-01T09:17:37;95086.89;;;9.14;45.70
74334;BME280;62753;40.394;-80.022;2023-05-01T09:20:04;95090.74;;;7.94;47.96
74334;BME280;62753;40.394;-80.022;2023-05-01T09:22:29;95087.21;;;8.97;46.73
74334;BME280;62753;40.394;-80.022;2023-05-01T09:24:55;95089.28;;;9.19;46.87
74334;BME280;62753;40.394;-80.022;2023-05-01T09:27:20;95083.34;;;9.70;46.17
74334;BME280;62753;40.394;-80.022;2023-05-01T09:29:46;95082.64;;;10.02;44.78
74334;BME280;62753;40.394;-80.022;2023-05-01T09:32:15;95080.36;;;8.08;47.52
74334;BME280;62753;40.394;-80.022;2023-05-01T09:34:36;95083.34;;;8.11;47.74
74334;BME280;62753;40.394;-80.022;2023-05-01T09:37:02;95092.06;;;8.02;48.98
74334;BME280;62753;40.394;-80.022;2023-05-01T09:39:27;95081.19;;;8.57;47.23
74334;BME280;62753;40.394;-80.022;2023-05-01T09:41:52;95082.37;;;8.44;47.25
74334;BME280;62753;40.394;-80.022;2023-05-01T09:44:18;95083.67;;;8.23;48.00
74334;BME280;62753;40.394;-80.022;2023-05-01T09:46:44;95080.27;;;9.31;46.74
74334;BME280;62753;40.394;-80.022;2023-05-01T09:49:09;95081.24;;;8.76;47.56
74334;BME280;62753;40.394;-80.022;2023-05-01T09:51:34;95074.48;;;9.14;46.93
74334;BME280;62753;40.394;-80.022;2023-05-01T09:54:02;95081.47;;;8.98;46.58
74334;BME280;62753;40.394;-80.022;2023-05-01T09:56:26;95077.71;;;8.75;47.49
74334;BME280;62753;40.394;-80.022;2023-05-01T09:58:51;95073.40;;;9.13;46.55
74334;BME280;62753;40.394;-80.022;2023-05-01T10:01:16;95074.10;;;9.33;46.35
74334;BME280;62753;40.394;-80.022;2023-05-01T10:03:43;95078.86;;;9.04;46.26
74334;BME280;62753;40.394;-80.022;2023-05-01T10:06:08;95073.63;;;9.05;46.84
74334;BME280;62753;40.394;-80.022;2023-05-01T10:08:43;95075.64;;;8.04;49.00
74334;BME280;62753;40.394;-80.022;2023-05-01T10:11:00;95074.16;;;8.74;47.46
74334;BME280;62753;40.394;-80.022;2023-05-01T10:13:23;95065.96;;;8.74;47.50
74334;BME280;62753;40.394;-80.022;2023-05-01T10:15:54;95067.66;;;8.96;46.74
74334;BME280;62753;40.394;-80.022;2023-05-01T10:18:16;95062.54;;;7.88;49.78
74334;BME280;62753;40.394;-80.022;2023-05-01T10:20:40;95059.16;;;8.06;49.63
74334;BME280;62753;40.394;-80.022;2023-05-01T10:23:06;95063.82;;;8.83;49.56
74334;BME280;62753;40.394;-80.022;2023-05-01T10:25:32;95058.34;;;9.12;47.58
74334;BME280;62753;40.394;-80.022;2023-05-01T10:27:57;95063.61;;;8.92;47.59
74334;BME280;62753;40.394;-80.022;2023-05-01T10:30:22;95059.71;;;9.01;47.36
74334;BME280;62753;40.394;-80.022;2023-05-01T10:32:48;95063.62;;;9.28;45.92
74334;BME280;62753;40.394;-80.022;2023-05-01T10:35:14;95065.26;;;8.90;47.68
74334;BME280;62753;40.394;-80.022;2023-05-01T10:37:45;95064.88;;;9.60;46.02
74334;BME280;62753;40.394;-80.022;2023-05-01T10:42:29;95068.35;;;9.89;45.19
74334;BME280;62753;40.394;-80.022;2023-05-01T10:52:11;95073.97;;;10.38;45.16
74334;BME280;62753;40.394;-80.022;2023-05-01T10:54:37;95082.05;;;10.24;44.88
74334;BME280;62753;40.394;-80.022;2023-05-01T10:57:04;95087.11;;;10.01;44.88
74334;BME280;62753;40.394;-80.022;2023-05-01T11:01:54;95086.95;;;9.66;46.04
74334;BME280;62753;40.394;-80.022;2023-05-01T11:11:47;95068.90;;;9.48;46.82
74334;BME280;62753;40.394;-80.022;2023-05-01T11:14:02;95069.02;;;8.96;47.94
74334;BME280;62753;40.394;-80.022;2023-05-01T11:16:40;95062.06;;;9.20;47.78
74334;BME280;62753;40.394;-80.022;2023-05-01T11:18:53;95062.31;;;9.25;46.35
74334;BME280;62753;40.394;-80.022;2023-05-01T11:21:18;95061.35;;;10.46;46.46
74334;BME280;62753;40.394;-80.022;2023-05-01T11:23:46;95066.35;;;9.93;45.96
74334;BME280;62753;40.394;-80.022;2023-05-01T11:26:09;95062.54;;;9.91;46.65
74334;BME280;62753;40.394;-80.022;2023-05-01T11:28:36;95066.81;;;9.68;45.93
74334;BME280;62753;40.394;-80.022;2023-05-01T11:31:00;95061.73;;;9.68;47.38
74334;BME280;62753;40.394;-80.022;2023-05-01T11:33:25;95064.56;;;8.88;48.49
74334;BME280;62753;40.394;-80.022;2023-05-01T11:35:57;95066.58;;;8.72;49.41
74334;BME280;62753;40.394;-80.022;2023-05-01T11:38:17;95062.57;;;8.41;51.36
74334;BME280;62753;40.394;-80.022;2023-05-01T11:40:42;95067.78;;;9.01;49.68
74334;BME280;62753;40.394;-80.022;2023-05-01T11:43:08;95065.85;;;9.26;48.36
74334;BME280;62753;40.394;-80.022;2023-05-01T11:45:34;95073.09;;;9.37;48.00
74334;BME280;62753;40.394;-80.022;2023-05-01T11:47:59;95073.69;;;9.06;48.47
74334;BME280;62753;40.394;-80.022;2023-05-01T11:50:33;95072.37;;;9.00;48.80
74334;BME280;62753;40.394;-80.022;2023-05-01T11:52:51;95073.24;;;8.83;48.68
74334;BME280;62753;40.394;-80.022;2023-05-01T11:55:15;95073.80;;;8.37;49.81
74334;BME280;62753;40.394;-80.022;2023-05-01T11:57:47;95072.29;;;8.92;48.96
74334;BME280;62753;40.394;-80.022;2023-05-01T12:00:07;95076.42;;;9.08;49.19
74334;BME280;62753;40.394;-80.022;2023-05-01T12:02:32;95069.75;;;9.07;49.14
74334;BME280;62753;40.394;-80.022;2023-05-01T12:07:23;95072.31;;;8.72;49.44
74334;BME280;62753;40.394;-80.022;2023-05-01T12:09:48;95061.75;;;9.22;47.70
74334;BME280;62753;40.394;-80.022;2023-05-01T12:12:13;95064.86;;;8.86;49.77
74334;BME280;62753;40.394;-80.022;2023-05-01T12:14:39;95061.37;;;9.14;48.57
74334;BME280;62753;40.394;-80.022;2023-05-01T12:17:05;95063.94;;;8.65;48.85
74334;BME280;62753;40.394;-80.022;2023-05-01T12:19:30;95061.95;;;8.93;48.59
74334;BME280;62753;40.394;-80.022;2023-05-01T12:22:05;95064.68;;;8.93;48.21
74334;BME280;62753;40.394;-80.022;2023-05-01T12:24:21;95065.52;;;8.32;49.22
74334;BME280;62753;40.394;-80.022;2023-05-01T12:26:58;95061.61;;;9.41;47.99
74334;BME280;62753;40.394;-80.022;2023-05-01T12:29:12;95057.34;;;8.91;48.04
74334;BME280;62753;40.394;-80.022;2023-05-01T12:31:45;95058.90;;;9.36;49.40
74334;BME280;62753;40.394;-80.022;2023-05-01T12:34:04;95054.32;;;7.87;50.09
74334;BME280;62753;40.394;-80.022;2023-05-01T12:36:30;95058.32;;;8.03;50.10
74334;BME280;62753;40.394;-80.022;2023-05-01T12:38:55;95055.87;;;8.99;49.31
74334;BME280;62753;40.394;-80.022;2023-05-01T12:41:19;95050.78;;;9.64;47.72
74334;BME280;62753;40.394;-80.022;2023-05-01T12:43:45;95048.94;;;9.46;47.93
74334;BME280;62753;40.394;-80.022;2023-05-01T12:46:13;95051.59;;;9.31;48.24
74334;BME280;62753;40.394;-80.022;2023-05-01T12:48:38;95051.55;;;9.00;49.46
74334;BME280;62753;40.394;-80.022;2023-05-01T12:51:01;95046.80;;;9.69;47.34
74334;BME280;62753;40.394;-80.022;2023-05-01T12:53:28;95050.36;;;9.88;47.26